createdAt,value
2022-08-05T00:01:28.581Z,46.85
2022-08-05T00:03:57.166Z,46.63
2022-08-05T00:06:32.494Z,47.02
2022-08-05T00:09:00.503Z,47.23
2022-08-05T00:11:30.628Z,47.25
2022-08-05T00:14:02.509Z,47.70
2022-08-05T00:16:53.030Z,48.04
2022-08-05T00:21:53.945Z,48.17
2022-08-05T00:24:24.707Z,48.27
2022-08-05T00:26:57.526Z,48.66
2022-08-05T00:29:25.725Z,48.51
2022-08-05T00:32:12.651Z,48.87
2022-08-05T00:34:54.079Z,49.09
2022-08-05T00:37:50.775Z,49.75
2022-08-05T00:40:14.504Z,50.21
2022-08-05T00:42:48.238Z,51.57
2022-08-05T00:45:15.954Z,52.17
2022-08-05T00:47:56.322Z,52.32
2022-08-05T00:50:25.450Z,53.67
2022-08-05T00:52:53.352Z,53.71
2022-08-05T00:55:21.735Z,54.24
2022-08-05T00:57:55.458Z,54.15
2022-08-05T01:00:26.014Z,54.46
2022-08-05T01:02:52.965Z,55.05
2022-08-05T01:05:19.724Z,55.37
2022-08-05T01:08:41.886Z,55.17
2022-08-05T01:10:41.788Z,53.71
2022-08-05T01:13:57.373Z,52.67
2022-08-05T01:16:49.245Z,51.59
2022-08-05T01:19:57.220Z,51.62
2022-08-05T01:22:54.245Z,51.77
2022-08-05T01:26:01.480Z,51.81
2022-08-05T01:28:51.524Z,51.92
2022-08-05T01:31:42.607Z,51.58
2022-08-05T01:34:28.213Z,51.90
2022-08-05T01:37:24.583Z,51.36
2022-08-05T01:39:58.764Z,51.42
2022-08-05T01:42:27.946Z,51.81
2022-08-05T01:44:59.199Z,51.82
2022-08-05T01:47:38.706Z,51.62
2022-08-05T01:50:15.666Z,51.50
2022-08-05T01:52:50.111Z,51.78
2022-08-05T01:55:20.347Z,51.62
2022-08-05T01:58:10.128Z,51.99
2022-08-05T02:00:38.283Z,51.46
2022-08-05T02:03:24.217Z,50.47
2022-08-05T02:05:59.811Z,51.01
2022-08-05T02:08:31.208Z,50.64
2022-08-05T02:11:11.775Z,50.64
2022-08-05T02:13:53.474Z,51.07
2022-08-05T02:16:39.281Z,50.92
2022-08-05T02:19:34.486Z,51.14
2022-08-05T02:22:26.628Z,52.32
2022-08-05T02:25:02.041Z,52.27
2022-08-05T02:27:59.778Z,52.67
2022-08-05T02:30:18.224Z,52.26
2022-08-05T02:32:50.252Z,52.90
2022-08-05T02:35:28.061Z,53.06
2022-08-05T02:38:02.374Z,53.61
2022-08-05T02:40:30.911Z,53.12
2022-08-05T02:42:59.135Z,53.72
2022-08-05T02:45:28.394Z,53.88
2022-08-05T02:48:07.545Z,54.11
2022-08-05T02:50:46.014Z,54.42
2022-08-05T02:53:19.046Z,55.13
2022-08-05T02:55:55.331Z,55.13
2022-08-05T02:58:30.048Z,55.17
2022-08-05T03:01:01.828Z,55.42
2022-08-05T03:03:33.951Z,55.04
2022-08-05T03:06:55.039Z,54.91
2022-08-05T03:09:04.283Z,55.15
2022-08-05T03:11:56.015Z,54.98
2022-08-05T03:14:18.350Z,54.65
2022-08-05T03:16:45.811Z,55.16
2022-08-05T03:19:20.284Z,54.89
2022-08-05T03:21:59.516Z,55.50
2022-08-05T03:24:30.360Z,55.23
2022-08-05T03:27:00.828Z,55.48
2022-08-05T03:29:44.479Z,55.31
2022-08-05T03:32:12.165Z,55.96
2022-08-05T03:34:42.073Z,56.69
2022-08-05T03:37:18.332Z,56.51
2022-08-05T03:40:01.751Z,56.71
2022-08-05T03:42:32.156Z,56.55
2022-08-05T03:44:59.579Z,56.88
2022-08-05T03:47:30.413Z,56.65
2022-08-05T03:50:02.009Z,57.15
2022-08-05T03:52:39.073Z,57.50
2022-08-05T03:56:04.181Z,57.73
2022-08-05T03:58:17.920Z,58.18
2022-08-05T04:00:51.474Z,58.53
2022-08-05T04:03:28.542Z,59.48
2022-08-05T04:05:58.059Z,60.20
2022-08-05T04:08:35.959Z,60.12
2022-08-05T04:11:07.440Z,60.42
2022-08-05T04:13:50.017Z,60.71
2022-08-05T04:16:24.349Z,60.25
2022-08-05T04:18:59.965Z,60.34
2022-08-05T04:22:05.272Z,60.55
2022-08-05T04:24:18.855Z,60.36
2022-08-05T04:26:48.813Z,61.00
2022-08-05T04:29:15.403Z,61.07
2022-08-05T04:31:43.006Z,60.92
2022-08-05T04:34:31.247Z,60.79
2022-08-05T04:36:56.498Z,60.58
2022-08-05T04:39:23.324Z,60.85
2022-08-05T04:41:51.191Z,61.20
2022-08-05T04:44:29.586Z,61.68
2022-08-05T04:47:09.708Z,61.39
2022-08-05T04:50:01.290Z,61.09
2022-08-05T04:52:27.649Z,60.99
2022-08-05T04:54:54.522Z,60.57
2022-08-05T04:57:28.531Z,60.42
2022-08-05T04:59:56.715Z,60.21
2022-08-05T05:02:37.630Z,60.02
2022-08-05T05:05:26.388Z,60.45
2022-08-05T05:08:03.604Z,60.61
2022-08-05T05:10:33.861Z,61.64
2022-08-05T05:13:01.758Z,60.50
2022-08-05T05:15:57.633Z,59.69
2022-08-05T05:18:28.494Z,59.79
2022-08-05T05:21:01.071Z,60.42
2022-08-05T05:23:38.849Z,59.62
2022-08-05T05:26:14.290Z,58.34
2022-08-05T05:28:42.673Z,58.62
2022-08-05T05:31:11.269Z,58.76
2022-08-05T05:33:58.627Z,58.09
2022-08-05T05:36:24.307Z,58.14
2022-08-05T05:38:55.491Z,57.32
2022-08-05T05:41:22.197Z,57.18
2022-08-05T05:43:57.360Z,56.12
2022-08-05T05:46:26.752Z,54.94
2022-08-05T05:48:53.511Z,54.11
2022-08-05T05:51:22.398Z,54.06
2022-08-05T05:53:57.251Z,53.49
2022-08-05T05:56:26.021Z,52.17
2022-08-05T05:59:03.260Z,53.04
2022-08-05T06:01:37.959Z,50.85
2022-08-05T06:04:07.030Z,50.88
2022-08-05T06:06:34.767Z,51.04
2022-08-05T06:09:01.927Z,50.32
2022-08-05T06:11:31.236Z,49.58
2022-08-05T06:13:58.002Z,49.25
2022-08-05T06:16:36.832Z,49.17
2022-08-05T06:19:05.929Z,48.79
2022-08-05T06:21:36.018Z,48.78
2022-08-05T06:24:12.110Z,48.31
2022-08-05T06:26:51.078Z,49.39
2022-08-05T06:29:25.481Z,49.43
2022-08-05T06:32:05.671Z,49.56
2022-08-05T06:34:48.308Z,49.76
2022-08-05T06:37:39.412Z,50.35
2022-08-05T06:40:07.406Z,51.07
2022-08-05T06:42:33.906Z,51.75
2022-08-05T06:45:05.501Z,52.38
2022-08-05T06:48:44.222Z,52.68
2022-08-05T06:50:21.525Z,52.94
2022-08-05T06:53:03.962Z,53.46
2022-08-05T06:55:36.323Z,53.42
2022-08-05T06:58:30.141Z,53.41
2022-08-05T07:00:51.252Z,53.27
2022-08-05T07:03:17.875Z,53.01
2022-08-05T07:05:46.372Z,53.07
2022-08-05T07:08:13.315Z,52.44
2022-08-05T07:10:52.770Z,52.55
2022-08-05T07:13:58.179Z,52.24
2022-08-05T07:18:00.997Z,51.66
2022-08-05T07:20:16.664Z,51.03
2022-08-05T07:22:28.976Z,50.01
2022-08-05T07:25:24.116Z,49.59
2022-08-05T07:27:59.544Z,49.84
2022-08-05T07:30:39.712Z,48.87
2022-08-05T07:33:16.825Z,47.96
2022-08-05T07:36:04.910Z,48.35
2022-08-05T07:38:33.618Z,48.54
2022-08-05T07:42:08.121Z,48.80
2022-08-05T07:43:51.788Z,48.04
2022-08-05T07:46:24.566Z,47.44
2022-08-05T07:49:03.302Z,46.59
2022-08-05T07:51:37.383Z,46.15
2022-08-05T07:54:08.409Z,45.35
2022-08-05T07:57:00.233Z,45.17
2022-08-05T07:59:31.012Z,45.44
2022-08-05T08:02:07.244Z,44.77
2022-08-05T08:04:43.122Z,44.95
2022-08-05T08:07:12.141Z,45.24
2022-08-05T08:09:38.739Z,45.09
2022-08-05T08:12:12.528Z,45.29
2022-08-05T08:14:47.309Z,44.84
2022-08-05T08:17:16.262Z,44.87
2022-08-05T08:20:42.769Z,44.65
2022-08-05T08:22:32.209Z,45.21
2022-08-05T08:25:03.340Z,45.09
2022-08-05T08:27:39.922Z,45.37
2022-08-05T08:30:30.058Z,45.11
2022-08-05T08:33:02.420Z,44.56
2022-08-05T08:35:34.962Z,44.13
2022-08-05T08:38:07.770Z,44.04
2022-08-05T08:40:35.879Z,44.12
2022-08-05T08:45:20.785Z,44.50
2022-08-05T08:45:54.120Z,45.11
2022-08-05T08:48:23.146Z,44.83
2022-08-05T08:52:01.875Z,44.73
2022-08-05T08:53:55.498Z,43.57
2022-08-05T08:56:23.697Z,43.17
2022-08-05T08:58:53.965Z,42.65
2022-08-05T09:01:20.800Z,42.32
2022-08-05T09:03:57.493Z,42.12
2022-08-05T09:06:30.399Z,41.96
2022-08-05T09:09:02.102Z,41.11
2022-08-05T09:11:51.580Z,41.08
2022-08-05T09:14:58.880Z,41.50
2022-08-05T09:17:05.669Z,41.17
2022-08-05T09:20:01.375Z,41.06
2022-08-05T09:22:32.131Z,40.84
2022-08-05T09:25:01.504Z,41.73
2022-08-05T09:28:04.564Z,42.24
2022-08-05T09:30:27.916Z,41.02
2022-08-05T09:33:01.853Z,40.05
2022-08-05T09:35:29.438Z,40.06
2022-08-05T09:38:17.303Z,39.76
2022-08-05T09:40:52.374Z,40.92
2022-08-05T09:43:40.635Z,40.86
2022-08-05T09:46:27.480Z,40.84
2022-08-05T09:49:07.805Z,41.00
2022-08-05T09:51:42.699Z,40.92
2022-08-05T09:54:10.106Z,41.29
2022-08-05T09:56:38.415Z,41.38
2022-08-05T09:59:09.753Z,41.44
2022-08-05T10:01:46.557Z,40.85
2022-08-05T10:04:16.188Z,41.79
2022-08-05T10:06:59.494Z,42.12
2022-08-05T10:09:29.279Z,43.20
2022-08-05T10:12:30.269Z,43.12
2022-08-05T10:15:17.106Z,43.41
2022-08-05T10:17:54.407Z,44.24
2022-08-05T10:20:23.895Z,45.61
2022-08-05T10:22:52.682Z,45.92
2022-08-05T10:25:19.632Z,46.65
2022-08-05T10:28:09.680Z,45.69
2022-08-05T10:31:20.685Z,45.26
2022-08-05T10:33:28.838Z,45.09
2022-08-05T10:35:59.906Z,45.84
2022-08-05T10:38:29.201Z,45.87
2022-08-05T10:41:16.167Z,46.46
2022-08-05T10:43:53.785Z,46.86
2022-08-05T10:46:23.828Z,47.25
2022-08-05T10:49:01.518Z,47.18
2022-08-05T10:51:57.462Z,51.92
2022-08-05T10:55:02.208Z,63.13
2022-08-05T10:57:32.367Z,65.74
2022-08-05T11:00:29.861Z,67.39
2022-08-05T11:03:25.979Z,73.27
2022-08-05T11:06:14.640Z,71.19
2022-08-05T11:09:32.100Z,71.10
2022-08-05T11:12:26.927Z,74.34
2022-08-05T11:15:19.161Z,73.22
2022-08-05T11:17:57.056Z,74.80
2022-08-05T11:20:46.401Z,74.82
2022-08-05T11:24:04.964Z,76.67
2022-08-05T11:26:28.927Z,78.04
2022-08-05T11:29:12.667Z,80.10
2022-08-05T11:31:58.166Z,81.02
2022-08-05T11:34:55.284Z,82.54
2022-08-05T11:38:29.465Z,82.14
2022-08-05T11:44:53.048Z,85.48
2022-08-05T11:47:49.985Z,84.17
2022-08-05T11:50:09.700Z,83.06
2022-08-05T11:52:49.532Z,81.72
2022-08-05T11:55:17.890Z,79.39
2022-08-05T11:58:09.357Z,78.79
2022-08-05T12:00:38.236Z,77.91
2022-08-05T12:03:28.726Z,77.16
2022-08-05T12:06:06.193Z,73.49
2022-08-05T12:08:50.854Z,72.53
2022-08-05T12:11:40.335Z,71.74
2022-08-05T12:14:10.215Z,71.72
2022-08-05T12:16:39.920Z,72.21
2022-08-05T12:19:09.958Z,74.42
2022-08-05T12:21:57.120Z,73.43
2022-08-05T12:24:24.599Z,70.82
2022-08-05T12:26:53.256Z,71.02
2022-08-05T12:29:24.945Z,74.32
2022-08-05T12:31:56.906Z,67.47
2022-08-05T12:34:28.456Z,66.02
2022-08-05T12:36:57.447Z,67.19
2022-08-05T12:39:28.026Z,65.95
2022-08-05T12:42:01.352Z,68.07
2022-08-05T12:44:33.377Z,59.46
2022-08-05T12:47:01.826Z,67.27
2022-08-05T12:50:04.782Z,59.71
2022-08-05T12:52:33.863Z,61.83
2022-08-05T12:55:18.153Z,59.96
2022-08-05T12:58:51.396Z,58.77
2022-08-05T13:02:01.517Z,56.75
2022-08-05T13:03:41.566Z,52.79
2022-08-05T13:06:19.822Z,54.19
2022-08-05T13:08:52.421Z,58.18
2022-08-05T13:11:59.801Z,51.49
2022-08-05T13:14:19.566Z,51.19
2022-08-05T13:16:58.735Z,54.90
2022-08-05T13:19:51.691Z,55.34
2022-08-05T13:22:15.032Z,50.47
2022-08-05T13:24:58.017Z,49.24
2022-08-05T13:27:39.098Z,51.24
2022-08-05T13:30:35.429Z,47.54
2022-08-05T13:33:01.285Z,46.84
2022-08-05T13:35:43.250Z,48.98
2022-08-05T13:38:28.369Z,47.19
2022-08-05T13:41:00.911Z,47.63
2022-08-05T13:43:45.410Z,48.56
2022-08-05T13:46:16.273Z,47.28
2022-08-05T13:49:00.342Z,48.04
2022-08-05T13:51:40.108Z,47.24
2022-08-05T13:54:13.171Z,46.06
2022-08-05T13:56:50.580Z,44.39
2022-08-05T13:59:24.375Z,44.42
2022-08-05T14:01:57.847Z,46.46
2022-08-05T14:04:51.748Z,44.72
2022-08-05T14:07:26.492Z,44.42
2022-08-05T14:10:14.253Z,44.08
2022-08-05T14:12:48.730Z,44.30
2022-08-05T14:16:05.834Z,42.27
2022-08-05T14:18:03.863Z,43.00
2022-08-05T14:20:31.263Z,41.25
2022-08-05T14:22:58.975Z,43.04
2022-08-05T14:25:28.004Z,40.47
2022-08-05T14:27:55.428Z,40.26
2022-08-05T14:30:22.734Z,41.29
2022-08-05T14:32:53.041Z,40.70
2022-08-05T14:35:20.540Z,40.83
2022-08-05T14:37:51.015Z,41.21
2022-08-05T14:40:24.492Z,41.29
2022-08-05T14:42:51.791Z,42.50
2022-08-05T14:45:18.528Z,43.43
2022-08-05T14:48:05.197Z,45.64
2022-08-05T14:50:32.030Z,45.12
2022-08-05T14:52:59.575Z,45.84
2022-08-05T14:55:38.759Z,45.50
2022-08-05T14:58:11.097Z,45.35
2022-08-05T15:00:38.590Z,45.04
2022-08-05T15:03:06.124Z,45.93
2022-08-05T15:06:07.276Z,46.17
2022-08-05T15:08:58.035Z,46.66
2022-08-05T15:11:09.343Z,46.97
2022-08-05T15:13:46.222Z,47.33
2022-08-05T15:16:16.855Z,48.11
2022-08-05T15:18:43.770Z,48.25
2022-08-05T15:21:13.959Z,49.46
2022-08-05T15:23:40.518Z,49.13
2022-08-05T15:26:07.043Z,49.81
2022-08-05T15:28:33.956Z,49.99
2022-08-05T15:31:00.549Z,50.26
2022-08-05T15:34:04.760Z,51.17
2022-08-05T15:36:24.577Z,50.66
2022-08-05T15:40:41.192Z,51.23
2022-08-05T15:41:55.730Z,51.65
2022-08-05T15:44:25.712Z,51.86
2022-08-05T15:46:54.180Z,52.26
2022-08-05T15:49:41.837Z,53.99
2022-08-05T15:52:13.683Z,52.77
2022-08-05T15:54:42.975Z,53.09
2022-08-05T15:57:09.798Z,55.01
2022-08-05T15:59:38.074Z,53.39
2022-08-05T16:02:09.184Z,52.94
2022-08-05T16:04:36.542Z,53.88
2022-08-05T16:07:03.445Z,53.83
2022-08-05T16:09:32.496Z,53.71
2022-08-05T16:11:59.208Z,53.69
2022-08-05T16:14:26.110Z,54.22
2022-08-05T16:16:55.468Z,54.67
2022-08-05T16:20:02.806Z,58.81
2022-08-05T16:22:11.113Z,60.04
2022-08-05T16:24:52.174Z,58.92
2022-08-05T16:27:19.107Z,59.09
2022-08-05T16:29:58.853Z,58.44
2022-08-05T16:32:29.606Z,59.78
2022-08-05T16:34:59.744Z,59.33
2022-08-05T16:38:15.524Z,59.36
2022-08-05T16:40:26.491Z,59.84
2022-08-05T16:42:55.992Z,60.27
2022-08-05T16:46:04.213Z,61.52
2022-08-05T16:48:10.258Z,61.11
2022-08-05T16:50:37.116Z,61.24
2022-08-05T16:53:12.361Z,61.42
2022-08-05T16:55:49.445Z,61.62
2022-08-05T16:58:19.839Z,62.95
2022-08-05T17:00:48.158Z,63.28
2022-08-05T17:03:20.028Z,63.67
2022-08-05T17:05:51.850Z,64.13
2022-08-05T17:08:35.957Z,64.53
2022-08-05T17:11:16.495Z,64.35
2022-08-05T17:13:43.341Z,63.82
2022-08-05T17:16:29.718Z,64.29
2022-08-05T17:18:57.105Z,64.16
2022-08-05T17:21:23.966Z,64.29
2022-08-05T17:24:04.425Z,64.12
2022-08-05T17:26:36.340Z,63.62
2022-08-05T17:29:09.812Z,63.79
2022-08-05T17:31:57.019Z,63.80
2022-08-05T17:34:30.238Z,64.67
2022-08-05T17:37:01.984Z,64.94
2022-08-05T17:39:33.999Z,64.59
2022-08-05T17:42:19.801Z,65.08
2022-08-05T17:44:50.290Z,65.15
2022-08-05T17:47:21.891Z,65.89
2022-08-05T17:50:04.050Z,66.38
2022-08-05T17:52:53.201Z,66.78
2022-08-05T17:55:22.451Z,67.43
2022-08-05T17:57:54.172Z,67.70
2022-08-05T18:00:20.752Z,67.97
2022-08-05T18:02:58.437Z,68.42
2022-08-05T18:05:28.229Z,68.00
2022-08-05T18:08:01.789Z,68.58
2022-08-05T18:10:28.611Z,69.07
2022-08-05T18:12:59.938Z,68.78
2022-08-05T18:15:34.167Z,69.18
2022-08-05T18:18:05.556Z,69.35
2022-08-05T18:20:37.799Z,68.93
2022-08-05T18:23:09.475Z,68.85
2022-08-05T18:25:45.201Z,68.93
2022-08-05T18:28:17.591Z,69.41
2022-08-05T18:30:50.886Z,69.17
2022-08-05T18:33:22.409Z,69.62
2022-08-05T18:36:00.670Z,69.62
2022-08-05T18:38:32.398Z,70.12
2022-08-05T18:41:56.358Z,69.19
2022-08-05T18:43:48.973Z,69.39
2022-08-05T18:46:20.315Z,69.27
2022-08-05T18:48:54.076Z,68.17
2022-08-05T18:52:06.151Z,66.62
2022-08-05T18:54:27.624Z,66.77
2022-08-05T18:57:01.906Z,66.65
2022-08-05T19:02:26.847Z,65.09
2022-08-05T19:06:13.250Z,65.99
2022-08-05T19:08:00.356Z,64.87
2022-08-05T19:10:28.533Z,65.04
2022-08-05T19:12:58.586Z,64.87
2022-08-05T19:16:00.011Z,64.72
2022-08-05T19:18:21.824Z,64.60
2022-08-05T19:20:52.159Z,65.13
2022-08-05T19:24:04.501Z,65.04
2022-08-05T19:26:05.491Z,65.90
2022-08-05T19:28:41.661Z,65.33
2022-08-05T19:31:09.392Z,67.32
2022-08-05T19:33:40.627Z,68.63
2022-08-05T19:36:17.918Z,70.37
2022-08-05T19:38:44.932Z,70.74
2022-08-05T19:41:11.526Z,71.89
2022-08-05T19:44:06.518Z,73.73
2022-08-05T19:46:29.187Z,74.66
2022-08-05T19:49:01.241Z,76.08
2022-08-05T19:52:06.011Z,76.61
2022-08-05T19:54:28.471Z,76.86
2022-08-05T19:57:02.261Z,76.98
2022-08-05T19:59:59.609Z,75.68
2022-08-05T20:02:17.700Z,75.87
2022-08-05T20:04:46.187Z,76.30
2022-08-05T20:07:15.413Z,76.83
2022-08-05T20:09:53.929Z,78.29
2022-08-05T20:12:20.895Z,74.85
2022-08-05T20:14:49.529Z,75.31
2022-08-05T20:17:19.350Z,72.79
2022-08-05T20:19:50.782Z,71.29
2022-08-05T20:22:24.110Z,70.51
2022-08-05T20:24:53.682Z,70.26
2022-08-05T20:27:21.119Z,68.22
2022-08-05T20:29:58.411Z,67.15
2022-08-05T20:32:26.897Z,67.75
2022-08-05T20:34:54.113Z,67.01
2022-08-05T20:38:04.586Z,64.74
2022-08-05T20:40:08.566Z,64.92
2022-08-05T20:42:35.520Z,66.46
2022-08-05T20:45:02.648Z,65.04
2022-08-05T20:47:31.774Z,62.53
2022-08-05T20:49:58.890Z,61.39
2022-08-05T20:52:25.812Z,60.30
2022-08-05T20:54:59.464Z,62.05
2022-08-05T20:57:43.511Z,60.49
2022-08-05T21:00:40.523Z,59.93
2022-08-05T21:03:01.256Z,58.79
2022-08-05T21:05:28.546Z,60.67
2022-08-05T21:08:15.150Z,59.70
2022-08-05T21:10:48.955Z,59.29
2022-08-05T21:13:26.004Z,59.57
2022-08-05T21:16:03.701Z,60.33
2022-08-05T21:18:30.509Z,64.04
2022-08-05T21:20:57.544Z,60.71
2022-08-05T21:23:24.782Z,62.18
2022-08-05T21:25:51.705Z,62.23
2022-08-05T21:28:23.848Z,61.02
2022-08-05T21:30:50.818Z,62.23
2022-08-05T21:33:22.615Z,61.86
2022-08-05T21:35:58.529Z,63.42
2022-08-05T21:38:26.635Z,61.99
2022-08-05T21:40:53.273Z,61.77
2022-08-05T21:43:24.421Z,62.25
2022-08-05T21:45:57.360Z,62.62
2022-08-05T21:48:27.581Z,62.20
2022-08-05T21:50:57.174Z,62.55
2022-08-05T21:53:27.344Z,63.10
2022-08-05T21:56:05.423Z,63.52
2022-08-05T21:58:42.565Z,64.96
2022-08-05T22:01:26.738Z,65.21
2022-08-05T22:03:56.225Z,65.07
2022-08-05T22:06:35.485Z,65.97
2022-08-05T22:09:13.576Z,66.20
2022-08-05T22:11:43.658Z,66.17
2022-08-05T22:14:33.227Z,67.06
2022-08-05T22:17:03.885Z,66.90
2022-08-05T22:20:00.793Z,67.84
2022-08-05T22:22:26.699Z,67.60
2022-08-05T22:25:21.313Z,67.14
2022-08-05T22:28:08.639Z,68.13
2022-08-05T22:30:55.628Z,67.34
2022-08-05T22:33:58.308Z,67.87
2022-08-05T22:36:11.331Z,68.22
2022-08-05T22:38:42.551Z,67.77
2022-08-05T22:41:10.244Z,69.03
2022-08-05T22:43:38.120Z,69.17
2022-08-05T22:46:13.406Z,69.45
2022-08-05T22:48:42.026Z,69.93
2022-08-05T22:53:51.267Z,69.42
2022-08-05T22:59:44.223Z,70.39
2022-08-05T23:02:29.583Z,70.26
2022-08-05T23:05:02.039Z,70.67
2022-08-05T23:07:44.060Z,71.19
2022-08-05T23:10:15.015Z,71.19
2022-08-05T23:12:44.208Z,71.62
2022-08-05T23:15:12.728Z,71.60
2022-08-05T23:18:00.876Z,72.17
2022-08-05T23:20:26.296Z,72.92
2022-08-05T23:22:56.130Z,72.09
2022-08-05T23:25:53.688Z,71.99
2022-08-05T23:28:10.828Z,71.89
2022-08-05T23:30:43.552Z,71.64
2022-08-05T23:33:21.894Z,70.56
2022-08-05T23:35:52.548Z,70.74
2022-08-05T23:38:26.849Z,70.44
2022-08-05T23:40:53.592Z,70.10
2022-08-05T23:43:24.437Z,70.08
2022-08-05T23:46:20.703Z,70.01
2022-08-05T23:48:59.667Z,69.92
2022-08-05T23:51:52.474Z,69.00
2022-08-05T23:54:26.030Z,69.18
2022-08-05T23:57:03.281Z,67.64
